sensor_id;sensor_type;location;lat;lon;timestamp;pressure;altitude;pressure_sealevel;temperature;humidity
51321;BME280;38732;49.556;6.286;2023-03-03T00:02:07;99984.50;;;4.07;63.32
51321;BME280;38732;49.556;6.286;2023-03-03T00:04:35;99986.91;;;4.03;61.99
51321;BME280;38732;49.556;6.286;2023-03-03T00:07:04;99978.97;;;3.95;62.42
51321;BME280;38732;49.556;6.286;2023-03-03T00:09:32;99988.25;;;3.93;62.56
51321;BME280;38732;49.556;6.286;2023-03-03T00:12:02;99992.50;;;3.93;62.71
51321;BME280;38732;49.556;6.286;2023-03-03T00:14:45;99989.22;;;3.97;64.00
51321;BME280;38732;49.556;6.286;2023-03-03T00:17:32;99991.75;;;3.95;63.22
51321;BME280;38732;49.556;6.286;2023-03-03T00:20:34;99991.25;;;4.05;64.03
51321;BME280;38732;49.556;6.286;2023-03-03T00:23:36;99987.59;;;3.99;64.33
51321;BME280;38732;49.556;6.286;2023-03-03T00:26:17;99990.66;;;3.88;62.06
51321;BME280;38732;49.556;6.286;2023-03-03T00:28:52;99986.09;;;3.80;62.16
51321;BME280;38732;49.556;6.286;2023-03-03T00:31:34;99984.16;;;3.73;63.46
51321;BME280;38732;49.556;6.286;2023-03-03T00:36:48;99986.47;;;3.66;64.20
51321;BME280;38732;49.556;6.286;2023-03-03T00:39:30;99987.50;;;3.72;63.43
51321;BME280;38732;49.556;6.286;2023-03-03T00:42:01;99988.41;;;3.74;62.64
51321;BME280;38732;49.556;6.286;2023-03-03T00:44:47;99991.19;;;3.56;62.44
51321;BME280;38732;49.556;6.286;2023-03-03T00:47:30;99990.09;;;3.49;62.53
51321;BME280;38732;49.556;6.286;2023-03-03T00:52:38;99997.91;;;3.54;64.28
51321;BME280;38732;49.556;6.286;2023-03-03T00:55:07;99990.16;;;3.51;64.25
51321;BME280;38732;49.556;6.286;2023-03-03T00:57:35;100003.75;;;3.50;64.43
51321;BME280;38732;49.556;6.286;2023-03-03T01:00:04;100001.03;;;3.46;64.38
51321;BME280;38732;49.556;6.286;2023-03-03T01:02:32;100001.94;;;3.47;64.79
51321;BME280;38732;49.556;6.286;2023-03-03T01:05:01;99999.03;;;3.38;63.07
51321;BME280;38732;49.556;6.286;2023-03-03T01:07:29;100004.06;;;3.36;63.30
51321;BME280;38732;49.556;6.286;2023-03-03T01:09:57;100003.22;;;3.36;64.24
51321;BME280;38732;49.556;6.286;2023-03-03T01:12:25;100003.50;;;3.43;64.34
51321;BME280;38732;49.556;6.286;2023-03-03T01:14:54;100010.22;;;3.41;64.34
51321;BME280;38732;49.556;6.286;2023-03-03T01:17:23;100018.25;;;3.28;62.72
51321;BME280;38732;49.556;6.286;2023-03-03T01:19:51;100007.97;;;3.27;63.18
51321;BME280;38732;49.556;6.286;2023-03-03T01:22:19;100017.13;;;3.21;63.60
51321;BME280;38732;49.556;6.286;2023-03-03T01:24:47;100009.53;;;3.23;64.37
51321;BME280;38732;49.556;6.286;2023-03-03T01:27:15;100007.75;;;3.20;64.89
51321;BME280;38732;49.556;6.286;2023-03-03T01:29:44;100016.16;;;3.18;64.12
51321;BME280;38732;49.556;6.286;2023-03-03T01:32:12;100007.50;;;3.14;63.34
51321;BME280;38732;49.556;6.286;2023-03-03T01:34:40;100007.09;;;3.03;62.99
51321;BME280;38732;49.556;6.286;2023-03-03T01:37:08;100009.34;;;2.96;63.65
51321;BME280;38732;49.556;6.286;2023-03-03T01:39:36;100018.03;;;3.01;64.02
51321;BME280;38732;49.556;6.286;2023-03-03T01:42:05;100007.00;;;3.02;65.05
51321;BME280;38732;49.556;6.286;2023-03-03T01:44:33;100009.81;;;3.08;65.30
51321;BME280;38732;49.556;6.286;2023-03-03T01:47:12;100015.97;;;3.13;65.10
51321;BME280;38732;49.556;6.286;2023-03-03T01:52:24;100006.63;;;3.14;64.07
51321;BME280;38732;49.556;6.286;2023-03-03T01:54:56;99997.94;;;3.09;63.63
51321;BME280;38732;49.556;6.286;2023-03-03T01:57:32;100002.66;;;2.99;63.97
51321;BME280;38732;49.556;6.286;2023-03-03T02:00:04;99996.41;;;3.14;65.02
51321;BME280;38732;49.556;6.286;2023-03-03T02:02:33;99998.97;;;3.14;64.68
51321;BME280;38732;49.556;6.286;2023-03-03T02:05:02;99993.75;;;3.11;64.73
51321;BME280;38732;49.556;6.286;2023-03-03T02:07:31;99990.69;;;3.19;66.00
51321;BME280;38732;49.556;6.286;2023-03-03T02:10:04;99996.50;;;3.15;64.21
51321;BME280;38732;49.556;6.286;2023-03-03T02:12:37;99999.03;;;3.15;63.77
51321;BME280;38732;49.556;6.286;2023-03-03T02:15:27;99992.91;;;3.10;64.06
51321;BME280;38732;49.556;6.286;2023-03-03T02:17:58;99997.16;;;3.11;64.15
51321;BME280;38732;49.556;6.286;2023-03-03T02:20:38;99996.69;;;2.99;64.28
51321;BME280;38732;49.556;6.286;2023-03-03T02:23:12;99989.81;;;2.96;65.28
51321;BME280;38732;49.556;6.286;2023-03-03T02:28:34;99985.34;;;2.91;63.83
51321;BME280;38732;49.556;6.286;2023-03-03T02:31:07;99993.94;;;2.72;62.88
51321;BME280;38732;49.556;6.286;2023-03-03T02:33:36;99985.72;;;2.79;63.75
51321;BME280;38732;49.556;6.286;2023-03-03T02:36:04;99985.13;;;2.85;63.46
51321;BME280;38732;49.556;6.286;2023-03-03T02:42:00;99991.38;;;2.93;64.91
51321;BME280;38732;49.556;6.286;2023-03-03T02:44:31;99993.97;;;2.94;64.55
51321;BME280;38732;49.556;6.286;2023-03-03T02:47:00;99989.81;;;2.96;64.31
51321;BME280;38732;49.556;6.286;2023-03-03T02:49:30;99991.13;;;2.87;63.91
51321;BME280;38732;49.556;6.286;2023-03-03T02:52:01;99983.25;;;2.80;64.08
51321;BME280;38732;49.556;6.286;2023-03-03T02:54:30;99985.84;;;2.82;64.33
51321;BME280;38732;49.556;6.286;2023-03-03T02:56:59;99983.47;;;2.87;64.37
51321;BME280;38732;49.556;6.286;2023-03-03T02:59:27;99989.38;;;2.86;64.67
51321;BME280;38732;49.556;6.286;2023-03-03T03:01:56;99976.53;;;2.83;62.78
51321;BME280;38732;49.556;6.286;2023-03-03T03:04:26;99985.88;;;2.61;62.72
51321;BME280;38732;49.556;6.286;2023-03-03T03:06:55;99987.47;;;2.59;62.65
51321;BME280;38732;49.556;6.286;2023-03-03T03:09:24;99984.19;;;2.62;64.41
51321;BME280;38732;49.556;6.286;2023-03-03T03:11:52;99985.69;;;2.56;63.50
51321;BME280;38732;49.556;6.286;2023-03-03T03:14:21;99983.84;;;2.52;63.87
51321;BME280;38732;49.556;6.286;2023-03-03T03:16:49;99977.91;;;2.53;64.18
51321;BME280;38732;49.556;6.286;2023-03-03T03:19:17;99989.28;;;2.62;64.93
51321;BME280;38732;49.556;6.286;2023-03-03T03:21:46;99992.56;;;2.59;63.66
51321;BME280;38732;49.556;6.286;2023-03-03T03:24:14;99999.28;;;2.57;64.54
51321;BME280;38732;49.556;6.286;2023-03-03T03:26:42;99993.13;;;2.52;63.62
51321;BME280;38732;49.556;6.286;2023-03-03T03:29:10;99987.13;;;2.50;64.21
51321;BME280;38732;49.556;6.286;2023-03-03T03:31:38;99998.22;;;2.52;65.33
51321;BME280;38732;49.556;6.286;2023-03-03T03:34:07;99990.66;;;2.53;64.23
51321;BME280;38732;49.556;6.286;2023-03-03T03:36:35;100000.00;;;2.53;64.50
51321;BME280;38732;49.556;6.286;2023-03-03T03:39:03;99990.72;;;2.55;64.24
51321;BME280;38732;49.556;6.286;2023-03-03T03:41:31;99999.34;;;2.58;64.85
51321;BME280;38732;49.556;6.286;2023-03-03T03:43:59;100000.66;;;2.49;63.91
51321;BME280;38732;49.556;6.286;2023-03-03T03:46:28;99993.94;;;2.51;65.00
51321;BME280;38732;49.556;6.286;2023-03-03T03:48:56;100004.53;;;2.60;64.36
51321;BME280;38732;49.556;6.286;2023-03-03T03:51:24;100004.66;;;2.63;65.31
51321;BME280;38732;49.556;6.286;2023-03-03T03:53:52;100002.84;;;2.61;63.98
51321;BME280;38732;49.556;6.286;2023-03-03T03:56:20;100003.81;;;2.64;64.37
51321;BME280;38732;49.556;6.286;2023-03-03T03:58:49;99993.50;;;2.61;63.63
51321;BME280;38732;49.556;6.286;2023-03-03T04:01:17;99993.41;;;2.58;64.35
51321;BME280;38732;49.556;6.286;2023-03-03T04:03:45;100003.31;;;2.52;63.17
51321;BME280;38732;49.556;6.286;2023-03-03T04:06:13;99995.69;;;2.52;63.70
51321;BME280;38732;49.556;6.286;2023-03-03T04:08:41;99998.38;;;2.55;63.81
51321;BME280;38732;49.556;6.286;2023-03-03T04:11:10;100002.56;;;2.54;64.68
51321;BME280;38732;49.556;6.286;2023-03-03T04:13:38;99995.13;;;2.59;64.93
51321;BME280;38732;49.556;6.286;2023-03-03T04:16:06;100006.25;;;2.61;65.30
51321;BME280;38732;49.556;6.286;2023-03-03T04:18:34;100000.22;;;2.59;64.11
51321;BME280;38732;49.556;6.286;2023-03-03T04:21:03;100008.31;;;2.49;63.35
51321;BME280;38732;49.556;6.286;2023-03-03T04:23:31;100002.22;;;2.45;63.30
51321;BME280;38732;49.556;6.286;2023-03-03T04:25:59;100009.13;;;2.48;63.76
51321;BME280;38732;49.556;6.286;2023-03-03T04:28:28;100010.09;;;2.30;62.95
51321;BME280;38732;49.556;6.286;2023-03-03T04:30:56;100010.22;;;2.12;63.05
51321;BME280;38732;49.556;6.286;2023-03-03T04:33:24;100009.19;;;2.09;62.76
51321;BME280;38732;49.556;6.286;2023-03-03T04:35:53;100014.34;;;2.10;63.51
51321;BME280;38732;49.556;6.286;2023-03-03T04:38:21;100010.22;;;2.12;63.56
51321;BME280;38732;49.556;6.286;2023-03-03T04:40:49;100011.06;;;2.13;63.29
51321;BME280;38732;49.556;6.286;2023-03-03T04:43:17;100016.63;;;2.04;63.17
51321;BME280;38732;49.556;6.286;2023-03-03T04:45:46;100010.47;;;1.99;64.03
51321;BME280;38732;49.556;6.286;2023-03-03T04:48:14;100007.66;;;1.93;63.36
51321;BME280;38732;49.556;6.286;2023-03-03T04:50:42;100006.81;;;1.92;63.73
51321;BME280;38732;49.556;6.286;2023-03-03T04:53:10;100007.88;;;1.98;64.79
51321;BME280;38732;49.556;6.286;2023-03-03T04:55:39;100010.88;;;1.89;63.06
51321;BME280;38732;49.556;6.286;2023-03-03T04:58:07;100011.28;;;1.79;62.44
51321;BME280;38732;49.556;6.286;2023-03-03T05:00:36;100012.34;;;1.64;62.14
51321;BME280;38732;49.556;6.286;2023-03-03T05:03:04;100023.41;;;1.65;62.04
51321;BME280;38732;49.556;6.286;2023-03-03T05:05:32;100031.78;;;1.62;62.87
51321;BME280;38732;49.556;6.286;2023-03-03T05:08:00;100031.56;;;1.58;63.22
51321;BME280;38732;49.556;6.286;2023-03-03T05:10:29;100028.13;;;1.57;64.07
51321;BME280;38732;49.556;6.286;2023-03-03T05:12:57;100034.91;;;1.57;64.42
51321;BME280;38732;49.556;6.286;2023-03-03T05:15:25;100034.25;;;1.61;65.49
51321;BME280;38732;49.556;6.286;2023-03-03T05:17:53;100033.31;;;1.59;64.50
51321;BME280;38732;49.556;6.286;2023-03-03T05:20:23;100037.28;;;1.71;65.95
51321;BME280;38732;49.556;6.286;2023-03-03T05:22:51;100031.09;;;1.66;64.54
51321;BME280;38732;49.556;6.286;2023-03-03T05:25:20;100039.00;;;1.53;63.54
51321;BME280;38732;49.556;6.286;2023-03-03T05:27:48;100035.94;;;1.60;65.61
51321;BME280;38732;49.556;6.286;2023-03-03T05:30:18;100042.97;;;1.66;65.17
51321;BME280;38732;49.556;6.286;2023-03-03T05:32:46;100043.56;;;1.60;64.27
51321;BME280;38732;49.556;6.286;2023-03-03T05:35:14;100052.25;;;1.46;63.28
51321;BME280;38732;49.556;6.286;2023-03-03T05:37:42;100054.69;;;1.44;64.26
51321;BME280;38732;49.556;6.286;2023-03-03T05:40:11;100052.59;;;1.54;65.05
51321;BME280;38732;49.556;6.286;2023-03-03T05:42:40;100048.16;;;1.49;64.85
51321;BME280;38732;49.556;6.286;2023-03-03T05:45:08;100043.28;;;1.54;65.18
51321;BME280;38732;49.556;6.286;2023-03-03T05:47:36;100043.28;;;1.54;64.77
51321;BME280;38732;49.556;6.286;2023-03-03T05:50:05;100054.28;;;1.53;64.37
51321;BME280;38732;49.556;6.286;2023-03-03T05:52:33;100051.25;;;1.62;64.04
51321;BME280;38732;49.556;6.286;2023-03-03T05:55:01;100052.84;;;1.60;65.41
51321;BME280;38732;49.556;6.286;2023-03-03T05:57:30;100053.41;;;1.53;63.40
51321;BME280;38732;49.556;6.286;2023-03-03T05:59:58;100058.66;;;1.38;63.38
51321;BME280;38732;49.556;6.286;2023-03-03T06:02:26;100070.59;;;1.21;62.93
51321;BME280;38732;49.556;6.286;2023-03-03T06:04:54;100071.75;;;1.27;63.90
51321;BME280;38732;49.556;6.286;2023-03-03T06:07:22;100075.16;;;1.28;63.52
51321;BME280;38732;49.556;6.286;2023-03-03T06:09:51;100071.44;;;1.21;63.81
51321;BME280;38732;49.556;6.286;2023-03-03T06:12:19;100075.66;;;1.21;64.05
51321;BME280;38732;49.556;6.286;2023-03-03T06:14:47;100080.69;;;1.19;64.44
51321;BME280;38732;49.556;6.286;2023-03-03T06:17:15;100078.94;;;1.18;64.08
51321;BME280;38732;49.556;6.286;2023-03-03T06:19:43;100082.63;;;1.07;64.09
51321;BME280;38732;49.556;6.286;2023-03-03T06:22:12;100085.53;;;1.15;64.00
51321;BME280;38732;49.556;6.286;2023-03-03T06:24:40;100086.34;;;1.14;64.97
51321;BME280;38732;49.556;6.286;2023-03-03T06:27:08;100096.78;;;1.02;63.65
51321;BME280;38732;49.556;6.286;2023-03-03T06:29:36;100095.69;;;0.97;64.67
51321;BME280;38732;49.556;6.286;2023-03-03T06:32:05;100098.34;;;0.98;63.88
51321;BME280;38732;49.556;6.286;2023-03-03T06:34:33;100102.69;;;1.01;63.71
51321;BME280;38732;49.556;6.286;2023-03-03T06:37:01;100103.66;;;1.03;64.67
51321;BME280;38732;49.556;6.286;2023-03-03T06:39:30;100106.81;;;0.99;64.60
51321;BME280;38732;49.556;6.286;2023-03-03T06:41:58;100102.84;;;1.04;64.86
51321;BME280;38732;49.556;6.286;2023-03-03T06:44:26;100108.16;;;1.08;66.00
51321;BME280;38732;49.556;6.286;2023-03-03T06:46:54;100110.06;;;1.13;66.22
51321;BME280;38732;49.556;6.286;2023-03-03T06:49:23;100100.97;;;1.18;66.04
51321;BME280;38732;49.556;6.286;2023-03-03T06:51:51;100109.53;;;1.38;67.04
51321;BME280;38732;49.556;6.286;2023-03-03T06:54:25;100103.41;;;1.34;64.90
51321;BME280;38732;49.556;6.286;2023-03-03T06:56:58;100107.78;;;1.37;65.70
51321;BME280;38732;49.556;6.286;2023-03-03T06:59:27;100116.81;;;1.48;66.35
51321;BME280;38732;49.556;6.286;2023-03-03T07:01:56;100116.34;;;1.57;65.77
51321;BME280;38732;49.556;6.286;2023-03-03T07:04:31;100120.19;;;1.66;65.88
51321;BME280;38732;49.556;6.286;2023-03-03T07:07:15;100113.84;;;1.76;65.62
51321;BME280;38732;49.556;6.286;2023-03-03T07:09:45;100114.59;;;1.73;66.33
51321;BME280;38732;49.556;6.286;2023-03-03T07:12:17;100125.44;;;1.89;66.03
51321;BME280;38732;49.556;6.286;2023-03-03T07:14:48;100126.81;;;2.00;67.49
51321;BME280;38732;49.556;6.286;2023-03-03T07:17:18;100123.03;;;2.10;67.34
51321;BME280;38732;49.556;6.286;2023-03-03T07:19:47;100124.81;;;2.32;67.95
51321;BME280;38732;49.556;6.286;2023-03-03T07:22:18;100116.94;;;2.47;68.97
51321;BME280;38732;49.556;6.286;2023-03-03T07:24:52;100125.06;;;2.57;69.43
51321;BME280;38732;49.556;6.286;2023-03-03T07:27:26;100126.78;;;2.78;70.11
51321;BME280;38732;49.556;6.286;2023-03-03T07:30:16;100125.81;;;2.95;69.92
51321;BME280;38732;49.556;6.286;2023-03-03T07:32:51;100124.69;;;3.10;70.49
51321;BME280;38732;49.556;6.286;2023-03-03T07:35:29;100127.03;;;3.26;70.19
51321;BME280;38732;49.556;6.286;2023-03-03T07:40:53;100134.97;;;3.55;69.83
51321;BME280;38732;49.556;6.286;2023-03-03T07:43:40;100135.59;;;3.72;69.91
51321;BME280;38732;49.556;6.286;2023-03-03T07:48:40;100134.75;;;3.94;69.37
51321;BME280;38732;49.556;6.286;2023-03-03T07:51:19;100142.94;;;4.07;69.22
51321;BME280;38732;49.556;6.286;2023-03-03T07:53:48;100149.63;;;4.28;68.07
51321;BME280;38732;49.556;6.286;2023-03-03T07:56:34;100145.13;;;4.45;67.11
51321;BME280;38732;49.556;6.286;2023-03-03T07:59:17;100154.19;;;4.61;65.95
51321;BME280;38732;49.556;6.286;2023-03-03T08:01:51;100164.19;;;4.79;65.91
51321;BME280;38732;49.556;6.286;2023-03-03T08:04:40;100166.13;;;4.84;65.97
51321;BME280;38732;49.556;6.286;2023-03-03T08:07:16;100177.47;;;4.92;66.21
51321;BME280;38732;49.556;6.286;2023-03-03T08:09:48;100165.91;;;5.04;65.88
51321;BME280;38732;49.556;6.286;2023-03-03T08:12:37;100171.56;;;5.21;65.31
51321;BME280;38732;49.556;6.286;2023-03-03T08:15:16;100170.88;;;5.25;65.36
51321;BME280;38732;49.556;6.286;2023-03-03T08:17:46;100182.41;;;5.39;64.22
51321;BME280;38732;49.556;6.286;2023-03-03T08:23:01;100185.34;;;5.50;64.23
51321;BME280;38732;49.556;6.286;2023-03-03T08:25:29;100174.88;;;5.71;63.72
51321;BME280;38732;49.556;6.286;2023-03-03T08:27:58;100176.34;;;5.62;63.75
51321;BME280;38732;49.556;6.286;2023-03-03T08:30:26;100165.16;;;5.88;62.75
51321;BME280;38732;49.556;6.286;2023-03-03T08:32:54;100169.75;;;5.98;63.14
51321;BME280;38732;49.556;6.286;2023-03-03T08:35:22;100183.88;;;6.14;62.00
51321;BME280;38732;49.556;6.286;2023-03-03T08:37:51;100180.81;;;6.25;61.66
51321;BME280;38732;49.556;6.286;2023-03-03T08:40:19;100184.25;;;6.26;61.18
51321;BME280;38732;49.556;6.286;2023-03-03T08:42:47;100180.53;;;6.45;60.45
51321;BME280;38732;49.556;6.286;2023-03-03T08:45:15;100176.13;;;6.41;60.98
51321;BME280;38732;49.556;6.286;2023-03-03T08:47:44;100181.38;;;6.45;60.50
51321;BME280;38732;49.556;6.286;2023-03-03T08:50:13;100173.22;;;6.29;60.63
51321;BME280;38732;49.556;6.286;2023-03-03T08:52:42;100181.75;;;6.28;60.01
51321;BME280;38732;49.556;6.286;2023-03-03T08:55:10;100182.50;;;6.55;60.19
51321;BME280;38732;49.556;6.286;2023-03-03T08:57:39;100183.31;;;6.24;60.42
51321;BME280;38732;49.556;6.286;2023-03-03T09:00:09;100183.00;;;6.42;60.84
51321;BME280;38732;49.556;6.286;2023-03-03T09:02:38;100181.00;;;6.63;59.84
51321;BME280;38732;49.556;6.286;2023-03-03T09:05:07;100182.50;;;6.55;59.63
51321;BME280;38732;49.556;6.286;2023-03-03T09:07:37;100178.78;;;6.76;59.91
51321;BME280;38732;49.556;6.286;2023-03-03T09:10:06;100177.00;;;6.73;59.93
51321;BME280;38732;49.556;6.286;2023-03-03T09:12:38;100184.09;;;6.82;59.95
51321;BME280;38732;49.556;6.286;2023-03-03T09:17:40;100199.25;;;7.06;59.02
51321;BME280;38732;49.556;6.286;2023-03-03T09:22:55;100205.44;;;6.49;60.27
51321;BME280;38732;49.556;6.286;2023-03-03T09:25:32;100200.41;;;7.17;58.95
51321;BME280;38732;49.556;6.286;2023-03-03T09:28:02;100201.47;;;7.25;58.32
51321;BME280;38732;49.556;6.286;2023-03-03T09:30:37;100199.50;;;7.50;58.00
51321;BME280;38732;49.556;6.286;2023-03-03T09:33:42;100198.53;;;7.45;57.81
51321;BME280;38732;49.556;6.286;2023-03-03T09:36:24;100201.47;;;7.60;57.07
51321;BME280;38732;49.556;6.286;2023-03-03T09:38:54;100208.88;;;7.46;56.97
51321;BME280;38732;49.556;6.286;2023-03-03T09:41:40;100206.28;;;7.46;57.42
51321;BME280;38732;49.556;6.286;2023-03-03T09:47:09;100198.69;;;7.87;56.06
51321;BME280;38732;49.556;6.286;2023-03-03T09:53:08;100201.63;;;7.66;56.97
51321;BME280;38732;49.556;6.286;2023-03-03T09:55:46;100196.31;;;7.96;56.18
51321;BME280;38732;49.556;6.286;2023-03-03T10:01:31;100196.09;;;8.27;54.94
51321;BME280;38732;49.556;6.286;2023-03-03T10:04:15;100195.34;;;8.32;55.46
51321;BME280;38732;49.556;6.286;2023-03-03T10:07:10;100211.56;;;8.28;55.43
51321;BME280;38732;49.556;6.286;2023-03-03T10:10:05;100210.50;;;8.18;56.57
51321;BME280;38732;49.556;6.286;2023-03-03T10:13:00;100202.94;;;8.26;56.54
51321;BME280;38732;49.556;6.286;2023-03-03T10:18:48;100204.09;;;8.81;54.82
51321;BME280;38732;49.556;6.286;2023-03-03T10:21:39;100207.38;;;8.74;54.61
51321;BME280;38732;49.556;6.286;2023-03-03T10:24:26;100208.72;;;9.01;53.66
51321;BME280;38732;49.556;6.286;2023-03-03T10:27:07;100209.75;;;9.11;53.66
51321;BME280;38732;49.556;6.286;2023-03-03T10:29:54;100203.69;;;9.57;51.92
51321;BME280;38732;49.556;6.286;2023-03-03T10:38:13;100192.72;;;10.30;49.97
51321;BME280;38732;49.556;6.286;2023-03-03T10:46:15;100191.75;;;10.93;48.08
51321;BME280;38732;49.556;6.286;2023-03-03T10:54:21;100187.88;;;11.41;47.47
51321;BME280;38732;49.556;6.286;2023-03-03T10:57:02;100192.28;;;11.56;47.06
51321;BME280;38732;49.556;6.286;2023-03-03T10:59:39;100193.97;;;11.53;46.79
51321;BME280;38732;49.556;6.286;2023-03-03T11:02:32;100190.50;;;11.46;46.24
51321;BME280;38732;49.556;6.286;2023-03-03T11:05:28;100196.78;;;11.82;45.49
51321;BME280;38732;49.556;6.286;2023-03-03T11:16:48;100184.28;;;12.63;43.60
51321;BME280;38732;49.556;6.286;2023-03-03T11:24:56;100182.53;;;12.56;42.84
51321;BME280;38732;49.556;6.286;2023-03-03T11:27:49;100189.50;;;12.76;42.37
51321;BME280;38732;49.556;6.286;2023-03-03T11:30:45;100186.97;;;13.14;42.15
51321;BME280;38732;49.556;6.286;2023-03-03T11:33:26;100179.25;;;13.43;41.49
51321;BME280;38732;49.556;6.286;2023-03-03T11:36:12;100176.63;;;13.65;41.03
51321;BME280;38732;49.556;6.286;2023-03-03T11:39:01;100168.84;;;13.58;40.90
51321;BME280;38732;49.556;6.286;2023-03-03T11:41:38;100163.66;;;13.52;40.91
51321;BME280;38732;49.556;6.286;2023-03-03T11:44:34;100155.00;;;13.52;40.94
51321;BME280;38732;49.556;6.286;2023-03-03T11:47:30;100152.38;;;13.86;41.52
51321;BME280;38732;49.556;6.286;2023-03-03T11:50:14;100145.22;;;14.44;40.39
51321;BME280;38732;49.556;6.286;2023-03-03T11:57:53;100138.25;;;14.60;39.67
51321;BME280;38732;49.556;6.286;2023-03-03T12:00:24;100129.22;;;15.12;38.83
51321;BME280;38732;49.556;6.286;2023-03-03T12:08:41;100127.16;;;15.51;38.76
51321;BME280;38732;49.556;6.286;2023-03-03T12:14:53;100125.69;;;16.09;36.12
51321;BME280;38732;49.556;6.286;2023-03-03T12:17:23;100127.72;;;16.55;35.23
51321;BME280;38732;49.556;6.286;2023-03-03T12:20:08;100114.53;;;17.23;33.82
51321;BME280;38732;49.556;6.286;2023-03-03T12:25:36;100107.72;;;18.10;32.85
51321;BME280;38732;49.556;6.286;2023-03-03T12:28:16;100105.78;;;18.98;31.69
51321;BME280;38732;49.556;6.286;2023-03-03T12:33:49;100101.47;;;19.64;29.54
51321;BME280;38732;49.556;6.286;2023-03-03T12:36:41;100097.00;;;20.00;29.03
51321;BME280;38732;49.556;6.286;2023-03-03T12:39:22;100104.91;;;20.60;28.38
51321;BME280;38732;49.556;6.286;2023-03-03T12:42:03;100103.16;;;20.59;29.32
51321;BME280;38732;49.556;6.286;2023-03-03T12:44:44;100104.19;;;21.09;27.34
51321;BME280;38732;49.556;6.286;2023-03-03T12:47:40;100103.91;;;20.90;27.06
51321;BME280;38732;49.556;6.286;2023-03-03T12:50:21;100094.63;;;21.84;24.68
51321;BME280;38732;49.556;6.286;2023-03-03T12:55:43;100093.38;;;21.94;23.43
51321;BME280;38732;49.556;6.286;2023-03-03T12:58:42;100091.28;;;22.27;23.59
51321;BME280;38732;49.556;6.286;2023-03-03T13:12:49;100094.25;;;22.64;22.98
51321;BME280;38732;49.556;6.286;2023-03-03T13:15:27;100096.31;;;22.33;22.27
51321;BME280;38732;49.556;6.286;2023-03-03T13:26:41;100087.75;;;22.50;21.05
51321;BME280;38732;49.556;6.286;2023-03-03T13:29:25;100091.38;;;22.92;20.54
51321;BME280;38732;49.556;6.286;2023-03-03T13:31:57;100088.03;;;22.21;20.68
51321;BME280;38732;49.556;6.286;2023-03-03T13:34:38;100088.28;;;22.36;20.20
51321;BME280;38732;49.556;6.286;2023-03-03T13:39:44;100083.56;;;22.23;20.22
51321;BME280;38732;49.556;6.286;2023-03-03T13:44:49;100075.03;;;22.39;20.37
51321;BME280;38732;49.556;6.286;2023-03-03T13:50:19;100067.44;;;22.76;19.24
51321;BME280;38732;49.556;6.286;2023-03-03T13:55:43;100066.16;;;22.42;19.41
51321;BME280;38732;49.556;6.286;2023-03-03T14:00:54;100062.09;;;21.86;19.81
51321;BME280;38732;49.556;6.286;2023-03-03T14:06:13;100059.47;;;21.63;20.12
51321;BME280;38732;49.556;6.286;2023-03-03T14:13:53;100054.22;;;22.10;20.35
51321;BME280;38732;49.556;6.286;2023-03-03T14:16:51;100047.84;;;22.15;20.31
51321;BME280;38732;49.556;6.286;2023-03-03T14:19:29;100057.69;;;22.10;19.95
51321;BME280;38732;49.556;6.286;2023-03-03T14:22:09;100045.78;;;22.47;18.97
51321;BME280;38732;49.556;6.286;2023-03-03T14:24:59;100043.16;;;22.69;18.92
51321;BME280;38732;49.556;6.286;2023-03-03T14:35:59;100036.03;;;22.27;18.87
51321;BME280;38732;49.556;6.286;2023-03-03T14:43:59;100029.50;;;22.14;19.79
51321;BME280;38732;49.556;6.286;2023-03-03T14:48:57;100019.31;;;21.59;19.72
51321;BME280;38732;49.556;6.286;2023-03-03T14:51:37;100025.28;;;21.39;21.02
51321;BME280;38732;49.556;6.286;2023-03-03T14:54:13;100020.50;;;21.24;19.93
51321;BME280;38732;49.556;6.286;2023-03-03T14:57:10;100021.03;;;21.33;19.30
51321;BME280;38732;49.556;6.286;2023-03-03T14:59:39;100022.22;;;21.00;19.19
51321;BME280;38732;49.556;6.286;2023-03-03T15:02:30;100019.09;;;20.88;20.27
51321;BME280;38732;49.556;6.286;2023-03-03T15:10:43;100014.00;;;20.57;20.16
51321;BME280;38732;49.556;6.286;2023-03-03T15:16:18;100015.59;;;19.75;20.63
51321;BME280;38732;49.556;6.286;2023-03-03T15:21:33;100020.06;;;19.72;20.77
51321;BME280;38732;49.556;6.286;2023-03-03T15:24:33;100016.31;;;19.80;20.84
51321;BME280;38732;49.556;6.286;2023-03-03T15:27:28;100016.34;;;19.79;20.04
51321;BME280;38732;49.556;6.286;2023-03-03T15:33:20;100004.53;;;19.64;19.58
51321;BME280;38732;49.556;6.286;2023-03-03T15:35:54;100006.44;;;19.26;20.18
51321;BME280;38732;49.556;6.286;2023-03-03T15:57:36;100023.44;;;17.09;25.00
51321;BME280;38732;49.556;6.286;2023-03-03T16:03:16;100021.56;;;16.63;26.79
51321;BME280;38732;49.556;6.286;2023-03-03T16:05:56;100024.56;;;16.38;27.21
51321;BME280;38732;49.556;6.286;2023-03-03T16:11:32;100031.16;;;16.01;28.43
51321;BME280;38732;49.556;6.286;2023-03-03T16:17:47;100039.38;;;15.65;28.52
51321;BME280;38732;49.556;6.286;2023-03-03T16:23:12;100053.69;;;15.24;29.23
51321;BME280;38732;49.556;6.286;2023-03-03T16:25:59;100051.22;;;15.09;29.63
51321;BME280;38732;49.556;6.286;2023-03-03T16:28:54;100055.00;;;14.70;29.76
51321;BME280;38732;49.556;6.286;2023-03-03T16:31:48;100068.19;;;14.36;30.34
51321;BME280;38732;49.556;6.286;2023-03-03T16:37:35;100057.75;;;14.42;30.12
51321;BME280;38732;49.556;6.286;2023-03-03T16:40:19;100076.00;;;14.30;31.74
51321;BME280;38732;49.556;6.286;2023-03-03T16:42:58;100079.50;;;14.27;30.84
51321;BME280;38732;49.556;6.286;2023-03-03T16:45:33;100081.31;;;14.13;31.84
51321;BME280;38732;49.556;6.286;2023-03-03T16:53:58;100086.66;;;13.67;33.46
51321;BME280;38732;49.556;6.286;2023-03-03T16:56:42;100088.41;;;13.57;33.83
51321;BME280;38732;49.556;6.286;2023-03-03T16:59:32;100095.31;;;13.50;33.76
51321;BME280;38732;49.556;6.286;2023-03-03T17:07:34;100110.06;;;13.08;34.73
51321;BME280;38732;49.556;6.286;2023-03-03T17:10:40;100105.72;;;13.00;34.49